sensor_id;sensor_type;location;lat;lon;timestamp;P1;durP1;ratioP1;P2;durP2;ratioP2
27402;SDS011;14862;49.494;8.530;2024-02-21T00:00:10;25.80;;;9.82;;
27402;SDS011;14862;49.494;8.530;2024-02-21T00:02:36;26.63;;;10.45;;
27402;SDS011;14862;49.494;8.530;2024-02-21T00:05:02;23.00;;;9.93;;
27402;SDS011;14862;49.494;8.530;2024-02-21T00:07:27;24.05;;;9.10;;
27402;SDS011;14862;49.494;8.530;2024-02-21T00:09:52;23.20;;;8.93;;
27402;SDS011;14862;49.494;8.530;2024-02-21T00:12:18;18.83;;;8.07;;
27402;SDS011;14862;49.494;8.530;2024-02-21T00:14:43;18.67;;;8.30;;
27402;SDS011;14862;49.494;8.530;2024-02-21T00:17:08;25.63;;;8.18;;
27402;SDS011;14862;49.494;8.530;2024-02-21T00:19:34;27.45;;;8.90;;
27402;SDS011;14862;49.494;8.530;2024-02-21T00:21:59;16.35;;;8.13;;
27402;SDS011;14862;49.494;8.530;2024-02-21T00:24:24;21.20;;;8.82;;
27402;SDS011;14862;49.494;8.530;2024-02-21T00:26:49;13.93;;;7.57;;
27402;SDS011;14862;49.494;8.530;2024-02-21T00:29:15;20.17;;;8.30;;
27402;SDS011;14862;49.494;8.530;2024-02-21T00:31:40;13.00;;;7.60;;
27402;SDS011;14862;49.494;8.530;2024-02-21T00:34:05;25.93;;;10.00;;
27402;SDS011;14862;49.494;8.530;2024-02-21T00:36:30;16.58;;;8.95;;
27402;SDS011;14862;49.494;8.530;2024-02-21T00:38:55;24.83;;;8.70;;
27402;SDS011;14862;49.494;8.530;2024-02-21T00:41:21;16.27;;;8.30;;
27402;SDS011;14862;49.494;8.530;2024-02-21T00:43:46;22.07;;;8.10;;
27402;SDS011;14862;49.494;8.530;2024-02-21T00:46:13;23.65;;;8.35;;
27402;SDS011;14862;49.494;8.530;2024-02-21T00:48:38;19.60;;;8.10;;
27402;SDS011;14862;49.494;8.530;2024-02-21T00:51:03;25.00;;;8.07;;
27402;SDS011;14862;49.494;8.530;2024-02-21T00:53:29;19.23;;;7.53;;
27402;SDS011;14862;49.494;8.530;2024-02-21T00:55:54;20.70;;;7.13;;
27402;SDS011;14862;49.494;8.530;2024-02-21T00:58:21;23.77;;;7.97;;
27402;SDS011;14862;49.494;8.530;2024-02-21T01:00:46;17.50;;;6.80;;
27402;SDS011;14862;49.494;8.530;2024-02-21T01:03:12;23.27;;;7.60;;
27402;SDS011;14862;49.494;8.530;2024-02-21T01:05:37;14.80;;;6.80;;
27402;SDS011;14862;49.494;8.530;2024-02-21T01:08:02;20.15;;;8.05;;
27402;SDS011;14862;49.494;8.530;2024-02-21T01:10:31;20.30;;;7.82;;
27402;SDS011;14862;49.494;8.530;2024-02-21T01:12:56;19.95;;;7.55;;
27402;SDS011;14862;49.494;8.530;2024-02-21T01:15:21;16.00;;;6.82;;
27402;SDS011;14862;49.494;8.530;2024-02-21T01:17:47;24.58;;;7.72;;
27402;SDS011;14862;49.494;8.530;2024-02-21T01:20:12;16.88;;;6.82;;
27402;SDS011;14862;49.494;8.530;2024-02-21T01:22:37;19.80;;;6.80;;
27402;SDS011;14862;49.494;8.530;2024-02-21T01:25:02;14.63;;;6.37;;
27402;SDS011;14862;49.494;8.530;2024-02-21T01:27:28;25.42;;;6.93;;
27402;SDS011;14862;49.494;8.530;2024-02-21T01:29:53;19.60;;;6.75;;
27402;SDS011;14862;49.494;8.530;2024-02-21T01:32:18;22.92;;;7.43;;
27402;SDS011;14862;49.494;8.530;2024-02-21T01:34:43;21.60;;;6.53;;
27402;SDS011;14862;49.494;8.530;2024-02-21T01:37:08;18.63;;;6.67;;
27402;SDS011;14862;49.494;8.530;2024-02-21T01:39:34;18.13;;;6.78;;
27402;SDS011;14862;49.494;8.530;2024-02-21T01:41:59;21.02;;;6.25;;
27402;SDS011;14862;49.494;8.530;2024-02-21T01:44:25;11.50;;;5.97;;
27402;SDS011;14862;49.494;8.530;2024-02-21T01:46:50;17.52;;;7.05;;
27402;SDS011;14862;49.494;8.530;2024-02-21T01:49:16;18.48;;;6.95;;
27402;SDS011;14862;49.494;8.530;2024-02-21T01:51:42;21.23;;;6.40;;
27402;SDS011;14862;49.494;8.530;2024-02-21T01:54:07;20.75;;;7.47;;
27402;SDS011;14862;49.494;8.530;2024-02-21T01:56:33;17.45;;;6.93;;
27402;SDS011;14862;49.494;8.530;2024-02-21T01:58:59;19.15;;;6.32;;
27402;SDS011;14862;49.494;8.530;2024-02-21T02:01:24;18.90;;;6.18;;
27402;SDS011;14862;49.494;8.530;2024-02-21T02:03:50;16.33;;;7.13;;
27402;SDS011;14862;49.494;8.530;2024-02-21T02:06:15;12.60;;;6.57;;
27402;SDS011;14862;49.494;8.530;2024-02-21T02:08:40;17.02;;;6.82;;
27402;SDS011;14862;49.494;8.530;2024-02-21T02:11:06;15.82;;;6.43;;
27402;SDS011;14862;49.494;8.530;2024-02-21T02:13:32;16.85;;;6.60;;
27402;SDS011;14862;49.494;8.530;2024-02-21T02:15:57;12.88;;;5.47;;
27402;SDS011;14862;49.494;8.530;2024-02-21T02:18:22;19.03;;;6.40;;
27402;SDS011;14862;49.494;8.530;2024-02-21T02:20:47;17.73;;;6.22;;
27402;SDS011;14862;49.494;8.530;2024-02-21T02:25:45;18.33;;;6.32;;
27402;SDS011;14862;49.494;8.530;2024-02-21T02:28:14;18.38;;;6.80;;
27402;SDS011;14862;49.494;8.530;2024-02-21T02:30:39;14.02;;;5.63;;
27402;SDS011;14862;49.494;8.530;2024-02-21T02:33:04;20.00;;;6.10;;
27402;SDS011;14862;49.494;8.530;2024-02-21T02:35:30;15.85;;;6.30;;
27402;SDS011;14862;49.494;8.530;2024-02-21T02:37:55;21.02;;;6.43;;
27402;SDS011;14862;49.494;8.530;2024-02-21T02:40:20;14.63;;;5.68;;
27402;SDS011;14862;49.494;8.530;2024-02-21T02:42:45;16.98;;;6.68;;
27402;SDS011;14862;49.494;8.530;2024-02-21T02:45:11;15.63;;;5.70;;
27402;SDS011;14862;49.494;8.530;2024-02-21T02:47:37;29.23;;;6.70;;
27402;SDS011;14862;49.494;8.530;2024-02-21T02:50:04;16.23;;;6.03;;
27402;SDS011;14862;49.494;8.530;2024-02-21T02:52:30;16.95;;;6.82;;
27402;SDS011;14862;49.494;8.530;2024-02-21T02:54:55;20.27;;;7.07;;
27402;SDS011;14862;49.494;8.530;2024-02-21T02:57:21;16.77;;;5.90;;
27402;SDS011;14862;49.494;8.530;2024-02-21T02:59:49;17.00;;;6.28;;
27402;SDS011;14862;49.494;8.530;2024-02-21T03:02:14;16.00;;;7.22;;
27402;SDS011;14862;49.494;8.530;2024-02-21T03:04:39;21.23;;;6.13;;
27402;SDS011;14862;49.494;8.530;2024-02-21T03:07:06;20.90;;;6.38;;
27402;SDS011;14862;49.494;8.530;2024-02-21T03:09:31;15.77;;;6.22;;
27402;SDS011;14862;49.494;8.530;2024-02-21T03:11:56;19.45;;;5.97;;
27402;SDS011;14862;49.494;8.530;2024-02-21T03:14:27;15.85;;;6.35;;
27402;SDS011;14862;49.494;8.530;2024-02-21T03:16:52;15.80;;;6.30;;
27402;SDS011;14862;49.494;8.530;2024-02-21T03:19:17;14.88;;;5.53;;
27402;SDS011;14862;49.494;8.530;2024-02-21T03:21:43;16.47;;;6.47;;
27402;SDS011;14862;49.494;8.530;2024-02-21T03:24:08;21.80;;;5.97;;
27402;SDS011;14862;49.494;8.530;2024-02-21T03:26:33;14.30;;;6.17;;
27402;SDS011;14862;49.494;8.530;2024-02-21T03:28:58;15.80;;;7.43;;
27402;SDS011;14862;49.494;8.530;2024-02-21T03:31:23;17.27;;;6.30;;
27402;SDS011;14862;49.494;8.530;2024-02-21T03:33:48;20.43;;;6.73;;
27402;SDS011;14862;49.494;8.530;2024-02-21T03:36:14;18.37;;;6.93;;
27402;SDS011;14862;49.494;8.530;2024-02-21T03:38:40;18.65;;;6.93;;
27402;SDS011;14862;49.494;8.530;2024-02-21T03:41:05;19.20;;;7.00;;
27402;SDS011;14862;49.494;8.530;2024-02-21T03:43:30;25.27;;;6.77;;
27402;SDS011;14862;49.494;8.530;2024-02-21T03:45:56;16.73;;;6.07;;
27402;SDS011;14862;49.494;8.530;2024-02-21T03:48:21;16.80;;;6.67;;
27402;SDS011;14862;49.494;8.530;2024-02-21T03:50:46;15.10;;;6.60;;
27402;SDS011;14862;49.494;8.530;2024-02-21T03:53:11;23.47;;;7.07;;
27402;SDS011;14862;49.494;8.530;2024-02-21T03:55:37;20.40;;;7.03;;
27402;SDS011;14862;49.494;8.530;2024-02-21T03:58:02;16.13;;;6.57;;
27402;SDS011;14862;49.494;8.530;2024-02-21T04:00:27;16.48;;;7.00;;
27402;SDS011;14862;49.494;8.530;2024-02-21T04:02:53;14.40;;;7.07;;
27402;SDS011;14862;49.494;8.530;2024-02-21T04:05:18;18.80;;;7.10;;
27402;SDS011;14862;49.494;8.530;2024-02-21T04:07:44;22.08;;;7.88;;
27402;SDS011;14862;49.494;8.530;2024-02-21T04:10:09;13.82;;;6.00;;
27402;SDS011;14862;49.494;8.530;2024-02-21T04:12:34;14.80;;;6.88;;
27402;SDS011;14862;49.494;8.530;2024-02-21T04:14:59;19.73;;;6.85;;
27402;SDS011;14862;49.494;8.530;2024-02-21T04:17:24;16.07;;;6.97;;
27402;SDS011;14862;49.494;8.530;2024-02-21T04:19:50;15.93;;;6.57;;
27402;SDS011;14862;49.494;8.530;2024-02-21T04:22:15;19.57;;;6.47;;
27402;SDS011;14862;49.494;8.530;2024-02-21T04:24:40;19.67;;;6.45;;
27402;SDS011;14862;49.494;8.530;2024-02-21T04:27:05;14.27;;;5.90;;
27402;SDS011;14862;49.494;8.530;2024-02-21T04:29:31;16.08;;;6.05;;
27402;SDS011;14862;49.494;8.530;2024-02-21T04:31:56;14.15;;;6.05;;
27402;SDS011;14862;49.494;8.530;2024-02-21T04:34:21;14.85;;;6.07;;
27402;SDS011;14862;49.494;8.530;2024-02-21T04:36:47;22.67;;;6.65;;
27402;SDS011;14862;49.494;8.530;2024-02-21T04:39:12;17.80;;;6.77;;
27402;SDS011;14862;49.494;8.530;2024-02-21T04:41:37;19.73;;;7.53;;
27402;SDS011;14862;49.494;8.530;2024-02-21T04:44:02;13.48;;;5.75;;
27402;SDS011;14862;49.494;8.530;2024-02-21T04:46:28;18.48;;;6.50;;
27402;SDS011;14862;49.494;8.530;2024-02-21T04:48:54;15.68;;;6.57;;
27402;SDS011;14862;49.494;8.530;2024-02-21T04:51:20;18.50;;;6.53;;
27402;SDS011;14862;49.494;8.530;2024-02-21T04:53:45;21.13;;;6.60;;
27402;SDS011;14862;49.494;8.530;2024-02-21T04:56:10;17.70;;;7.35;;
27402;SDS011;14862;49.494;8.530;2024-02-21T04:58:39;25.48;;;7.13;;
27402;SDS011;14862;49.494;8.530;2024-02-21T05:01:04;22.20;;;6.72;;
27402;SDS011;14862;49.494;8.530;2024-02-21T05:03:29;18.65;;;6.28;;
27402;SDS011;14862;49.494;8.530;2024-02-21T05:05:54;18.83;;;7.40;;
27402;SDS011;14862;49.494;8.530;2024-02-21T05:08:20;21.52;;;6.57;;
27402;SDS011;14862;49.494;8.530;2024-02-21T05:10:45;15.10;;;6.43;;
27402;SDS011;14862;49.494;8.530;2024-02-21T05:13:10;18.52;;;6.47;;
27402;SDS011;14862;49.494;8.530;2024-02-21T05:15:35;15.10;;;7.50;;
27402;SDS011;14862;49.494;8.530;2024-02-21T05:18:00;16.55;;;6.25;;
27402;SDS011;14862;49.494;8.530;2024-02-21T05:20:26;18.73;;;7.17;;
27402;SDS011;14862;49.494;8.530;2024-02-21T05:22:51;17.83;;;6.20;;
27402;SDS011;14862;49.494;8.530;2024-02-21T05:25:16;17.23;;;6.90;;
27402;SDS011;14862;49.494;8.530;2024-02-21T05:27:41;17.38;;;6.55;;
27402;SDS011;14862;49.494;8.530;2024-02-21T05:30:07;19.95;;;7.65;;
27402;SDS011;14862;49.494;8.530;2024-02-21T05:32:32;18.02;;;6.28;;
27402;SDS011;14862;49.494;8.530;2024-02-21T05:34:57;17.23;;;6.97;;
27402;SDS011;14862;49.494;8.530;2024-02-21T05:37:23;24.42;;;7.55;;
27402;SDS011;14862;49.494;8.530;2024-02-21T05:39:48;15.73;;;6.60;;
27402;SDS011;14862;49.494;8.530;2024-02-21T05:42:13;13.23;;;6.68;;
27402;SDS011;14862;49.494;8.530;2024-02-21T05:44:39;20.75;;;7.25;;
27402;SDS011;14862;49.494;8.530;2024-02-21T05:47:04;20.33;;;6.87;;
27402;SDS011;14862;49.494;8.530;2024-02-21T05:49:29;20.37;;;7.57;;
27402;SDS011;14862;49.494;8.530;2024-02-21T05:51:55;14.68;;;6.30;;
27402;SDS011;14862;49.494;8.530;2024-02-21T05:54:20;17.87;;;7.77;;
27402;SDS011;14862;49.494;8.530;2024-02-21T05:56:45;18.75;;;7.18;;
27402;SDS011;14862;49.494;8.530;2024-02-21T05:59:10;17.13;;;6.88;;
27402;SDS011;14862;49.494;8.530;2024-02-21T06:01:36;17.80;;;6.43;;
27402;SDS011;14862;49.494;8.530;2024-02-21T06:04:01;22.55;;;7.22;;
27402;SDS011;14862;49.494;8.530;2024-02-21T06:06:26;17.60;;;7.38;;
27402;SDS011;14862;49.494;8.530;2024-02-21T06:08:51;15.70;;;6.95;;
27402;SDS011;14862;49.494;8.530;2024-02-21T06:11:17;22.65;;;7.78;;
27402;SDS011;14862;49.494;8.530;2024-02-21T06:13:42;19.00;;;7.93;;
27402;SDS011;14862;49.494;8.530;2024-02-21T06:16:07;18.30;;;8.02;;
27402;SDS011;14862;49.494;8.530;2024-02-21T06:18:33;18.00;;;7.25;;
27402;SDS011;14862;49.494;8.530;2024-02-21T06:20:59;18.55;;;7.40;;
27402;SDS011;14862;49.494;8.530;2024-02-21T06:23:24;18.17;;;6.63;;
27402;SDS011;14862;49.494;8.530;2024-02-21T06:25:49;17.33;;;6.67;;
27402;SDS011;14862;49.494;8.530;2024-02-21T06:28:14;16.00;;;6.93;;
27402;SDS011;14862;49.494;8.530;2024-02-21T06:30:40;17.08;;;6.93;;
27402;SDS011;14862;49.494;8.530;2024-02-21T06:33:05;16.55;;;6.88;;
27402;SDS011;14862;49.494;8.530;2024-02-21T06:35:30;17.85;;;6.70;;
27402;SDS011;14862;49.494;8.530;2024-02-21T06:37:55;21.47;;;7.30;;
27402;SDS011;14862;49.494;8.530;2024-02-21T06:40:21;14.60;;;6.97;;
27402;SDS011;14862;49.494;8.530;2024-02-21T06:42:46;14.65;;;6.75;;
27402;SDS011;14862;49.494;8.530;2024-02-21T06:45:12;20.38;;;7.47;;
27402;SDS011;14862;49.494;8.530;2024-02-21T06:47:37;16.17;;;6.38;;
27402;SDS011;14862;49.494;8.530;2024-02-21T06:50:02;13.85;;;6.38;;
27402;SDS011;14862;49.494;8.530;2024-02-21T06:52:28;15.40;;;6.07;;
27402;SDS011;14862;49.494;8.530;2024-02-21T06:54:53;15.93;;;5.80;;
27402;SDS011;14862;49.494;8.530;2024-02-21T06:57:18;14.13;;;6.97;;
27402;SDS011;14862;49.494;8.530;2024-02-21T06:59:43;15.70;;;6.15;;
27402;SDS011;14862;49.494;8.530;2024-02-21T07:02:08;20.55;;;6.65;;
27402;SDS011;14862;49.494;8.530;2024-02-21T07:04:34;19.35;;;6.03;;
27402;SDS011;14862;49.494;8.530;2024-02-21T07:06:59;18.33;;;7.13;;
27402;SDS011;14862;49.494;8.530;2024-02-21T07:09:25;12.18;;;6.47;;
27402;SDS011;14862;49.494;8.530;2024-02-21T07:11:50;12.98;;;6.32;;
27402;SDS011;14862;49.494;8.530;2024-02-21T07:14:17;15.20;;;5.93;;
27402;SDS011;14862;49.494;8.530;2024-02-21T07:16:42;14.55;;;6.40;;
27402;SDS011;14862;49.494;8.530;2024-02-21T07:19:08;11.77;;;6.00;;
27402;SDS011;14862;49.494;8.530;2024-02-21T07:21:33;14.07;;;5.13;;
27402;SDS011;14862;49.494;8.530;2024-02-21T07:23:58;19.02;;;5.03;;
27402;SDS011;14862;49.494;8.530;2024-02-21T07:26:23;16.50;;;5.90;;
27402;SDS011;14862;49.494;8.530;2024-02-21T07:28:48;15.40;;;6.47;;
27402;SDS011;14862;49.494;8.530;2024-02-21T07:31:14;13.70;;;6.35;;
27402;SDS011;14862;49.494;8.530;2024-02-21T07:33:39;15.18;;;6.53;;
27402;SDS011;14862;49.494;8.530;2024-02-21T07:36:07;14.60;;;6.25;;
27402;SDS011;14862;49.494;8.530;2024-02-21T07:38:33;18.38;;;6.88;;
27402;SDS011;14862;49.494;8.530;2024-02-21T07:40:58;14.02;;;6.05;;
27402;SDS011;14862;49.494;8.530;2024-02-21T07:43:24;15.67;;;6.27;;
27402;SDS011;14862;49.494;8.530;2024-02-21T07:45:51;16.35;;;5.53;;
27402;SDS011;14862;49.494;8.530;2024-02-21T07:48:18;11.55;;;5.35;;
27402;SDS011;14862;49.494;8.530;2024-02-21T07:50:44;13.48;;;5.82;;
27402;SDS011;14862;49.494;8.530;2024-02-21T07:53:09;16.25;;;5.53;;
27402;SDS011;14862;49.494;8.530;2024-02-21T07:55:34;12.30;;;5.60;;
27402;SDS011;14862;49.494;8.530;2024-02-21T07:57:59;20.00;;;6.23;;
27402;SDS011;14862;49.494;8.530;2024-02-21T08:00:24;13.82;;;5.78;;
27402;SDS011;14862;49.494;8.530;2024-02-21T08:02:50;14.50;;;5.45;;
27402;SDS011;14862;49.494;8.530;2024-02-21T08:05:15;10.10;;;5.65;;
27402;SDS011;14862;49.494;8.530;2024-02-21T08:07:40;14.47;;;6.07;;
27402;SDS011;14862;49.494;8.530;2024-02-21T08:10:05;17.33;;;6.28;;
27402;SDS011;14862;49.494;8.530;2024-02-21T08:12:33;18.38;;;5.90;;
27402;SDS011;14862;49.494;8.530;2024-02-21T08:14:58;11.17;;;5.33;;
27402;SDS011;14862;49.494;8.530;2024-02-21T08:17:23;15.73;;;6.57;;
27402;SDS011;14862;49.494;8.530;2024-02-21T08:19:48;9.73;;;5.73;;
27402;SDS011;14862;49.494;8.530;2024-02-21T08:22:14;14.95;;;5.47;;
27402;SDS011;14862;49.494;8.530;2024-02-21T08:24:39;17.77;;;5.83;;
27402;SDS011;14862;49.494;8.530;2024-02-21T08:27:04;13.93;;;5.70;;
27402;SDS011;14862;49.494;8.530;2024-02-21T08:29:30;14.07;;;6.07;;
27402;SDS011;14862;49.494;8.530;2024-02-21T08:31:55;12.88;;;6.03;;
27402;SDS011;14862;49.494;8.530;2024-02-21T08:34:20;14.10;;;6.07;;
27402;SDS011;14862;49.494;8.530;2024-02-21T08:36:46;14.07;;;6.37;;
27402;SDS011;14862;49.494;8.530;2024-02-21T08:39:11;16.87;;;6.10;;
27402;SDS011;14862;49.494;8.530;2024-02-21T08:41:36;16.85;;;6.25;;
27402;SDS011;14862;49.494;8.530;2024-02-21T08:44:01;15.05;;;5.65;;
27402;SDS011;14862;49.494;8.530;2024-02-21T08:46:27;19.70;;;6.63;;
27402;SDS011;14862;49.494;8.530;2024-02-21T08:48:53;18.92;;;6.38;;
27402;SDS011;14862;49.494;8.530;2024-02-21T08:51:18;15.15;;;6.60;;
27402;SDS011;14862;49.494;8.530;2024-02-21T08:53:44;11.02;;;5.13;;
27402;SDS011;14862;49.494;8.530;2024-02-21T08:56:09;15.40;;;6.00;;
27402;SDS011;14862;49.494;8.530;2024-02-21T08:58:35;13.95;;;5.28;;
27402;SDS011;14862;49.494;8.530;2024-02-21T09:01:01;14.70;;;5.40;;
27402;SDS011;14862;49.494;8.530;2024-02-21T09:03:26;13.80;;;4.45;;
27402;SDS011;14862;49.494;8.530;2024-02-21T09:05:52;14.68;;;5.30;;
27402;SDS011;14862;49.494;8.530;2024-02-21T09:08:17;12.05;;;4.97;;
27402;SDS011;14862;49.494;8.530;2024-02-21T09:10:44;13.32;;;4.70;;
27402;SDS011;14862;49.494;8.530;2024-02-21T09:13:09;13.50;;;5.37;;
27402;SDS011;14862;49.494;8.530;2024-02-21T09:15:34;10.65;;;4.13;;
27402;SDS011;14862;49.494;8.530;2024-02-21T09:17:59;10.43;;;4.57;;
27402;SDS011;14862;49.494;8.530;2024-02-21T09:20:24;10.47;;;4.33;;
27402;SDS011;14862;49.494;8.530;2024-02-21T09:22:50;10.98;;;4.30;;
27402;SDS011;14862;49.494;8.530;2024-02-21T09:25:16;10.63;;;5.18;;
27402;SDS011;14862;49.494;8.530;2024-02-21T09:27:43;10.82;;;5.15;;
27402;SDS011;14862;49.494;8.530;2024-02-21T09:30:08;12.75;;;4.45;;
27402;SDS011;14862;49.494;8.530;2024-02-21T09:32:34;9.90;;;4.63;;
27402;SDS011;14862;49.494;8.530;2024-02-21T09:34:59;7.85;;;3.80;;
27402;SDS011;14862;49.494;8.530;2024-02-21T09:37:24;10.90;;;3.90;;
27402;SDS011;14862;49.494;8.530;2024-02-21T09:39:49;10.07;;;4.40;;
27402;SDS011;14862;49.494;8.530;2024-02-21T09:42:17;13.02;;;4.57;;
27402;SDS011;14862;49.494;8.530;2024-02-21T09:44:45;9.50;;;4.05;;
27402;SDS011;14862;49.494;8.530;2024-02-21T09:47:12;13.43;;;4.85;;
27402;SDS011;14862;49.494;8.530;2024-02-21T09:49:39;11.55;;;4.18;;
27402;SDS011;14862;49.494;8.530;2024-02-21T09:52:05;12.60;;;5.07;;
27402;SDS011;14862;49.494;8.530;2024-02-21T09:54:32;10.13;;;4.78;;
27402;SDS011;14862;49.494;8.530;2024-02-21T09:56:57;12.40;;;4.75;;
27402;SDS011;14862;49.494;8.530;2024-02-21T09:59:23;14.55;;;5.90;;
27402;SDS011;14862;49.494;8.530;2024-02-21T10:01:49;9.32;;;4.28;;
27402;SDS011;14862;49.494;8.530;2024-02-21T10:04:15;9.30;;;4.43;;
27402;SDS011;14862;49.494;8.530;2024-02-21T10:06:40;14.20;;;4.57;;
27402;SDS011;14862;49.494;8.530;2024-02-21T10:09:06;15.32;;;4.88;;
27402;SDS011;14862;49.494;8.530;2024-02-21T10:11:31;11.63;;;4.18;;
27402;SDS011;14862;49.494;8.530;2024-02-21T10:14:03;13.85;;;4.10;;
27402;SDS011;14862;49.494;8.530;2024-02-21T10:16:29;16.63;;;4.35;;
27402;SDS011;14862;49.494;8.530;2024-02-21T10:18:55;9.47;;;3.83;;
27402;SDS011;14862;49.494;8.530;2024-02-21T10:21:20;9.93;;;4.03;;
27402;SDS011;14862;49.494;8.530;2024-02-21T10:23:46;11.63;;;3.73;;
27402;SDS011;14862;49.494;8.530;2024-02-21T10:26:12;14.13;;;4.10;;
27402;SDS011;14862;49.494;8.530;2024-02-21T10:28:38;11.27;;;3.97;;
27402;SDS011;14862;49.494;8.530;2024-02-21T10:31:07;11.10;;;3.60;;
27402;SDS011;14862;49.494;8.530;2024-02-21T10:33:32;9.40;;;4.00;;
27402;SDS011;14862;49.494;8.530;2024-02-21T10:36:05;13.95;;;3.97;;
27402;SDS011;14862;49.494;8.530;2024-02-21T10:38:31;14.27;;;4.10;;
27402;SDS011;14862;49.494;8.530;2024-02-21T10:40:56;15.23;;;4.30;;
27402;SDS011;14862;49.494;8.530;2024-02-21T10:43:23;13.02;;;4.07;;
27402;SDS011;14862;49.494;8.530;2024-02-21T10:45:49;13.60;;;4.20;;
27402;SDS011;14862;49.494;8.530;2024-02-21T10:48:15;10.52;;;3.13;;
27402;SDS011;14862;49.494;8.530;2024-02-21T10:50:56;11.10;;;3.88;;
27402;SDS011;14862;49.494;8.530;2024-02-21T10:53:26;12.48;;;3.67;;
27402;SDS011;14862;49.494;8.530;2024-02-21T10:55:56;10.25;;;3.83;;
27402;SDS011;14862;49.494;8.530;2024-02-21T10:58:23;14.90;;;4.20;;
27402;SDS011;14862;49.494;8.530;2024-02-21T11:00:50;10.20;;;4.07;;
27402;SDS011;14862;49.494;8.530;2024-02-21T11:03:16;10.02;;;3.42;;
27402;SDS011;14862;49.494;8.530;2024-02-21T11:05:41;12.70;;;3.60;;
27402;SDS011;14862;49.494;8.530;2024-02-21T11:08:10;10.23;;;3.25;;
27402;SDS011;14862;49.494;8.530;2024-02-21T11:10:36;8.00;;;3.33;;
27402;SDS011;14862;49.494;8.530;2024-02-21T11:13:07;10.80;;;3.53;;
27402;SDS011;14862;49.494;8.530;2024-02-21T11:15:33;10.07;;;3.20;;
27402;SDS011;14862;49.494;8.530;2024-02-21T11:17:58;9.05;;;2.80;;
27402;SDS011;14862;49.494;8.530;2024-02-21T11:20:34;7.90;;;3.33;;
27402;SDS011;14862;49.494;8.530;2024-02-21T11:22:59;8.30;;;2.88;;
27402;SDS011;14862;49.494;8.530;2024-02-21T11:25:24;6.43;;;2.83;;
27402;SDS011;14862;49.494;8.530;2024-02-21T11:27:50;12.18;;;3.88;;
27402;SDS011;14862;49.494;8.530;2024-02-21T11:30:26;10.77;;;3.73;;
27402;SDS011;14862;49.494;8.530;2024-02-21T11:32:58;11.55;;;3.45;;
27402;SDS011;14862;49.494;8.530;2024-02-21T11:35:24;12.27;;;2.80;;
27402;SDS011;14862;49.494;8.530;2024-02-21T11:37:49;8.43;;;3.10;;
27402;SDS011;14862;49.494;8.530;2024-02-21T11:40:14;8.95;;;3.40;;
27402;SDS011;14862;49.494;8.530;2024-02-21T11:42:40;7.57;;;3.00;;
27402;SDS011;14862;49.494;8.530;2024-02-21T11:45:05;10.85;;;3.47;;
27402;SDS011;14862;49.494;8.530;2024-02-21T11:47:31;15.43;;;3.33;;
27402;SDS011;14862;49.494;8.530;2024-02-21T11:49:56;9.93;;;3.38;;
27402;SDS011;14862;49.494;8.530;2024-02-21T11:52:22;10.40;;;3.17;;
27402;SDS011;14862;49.494;8.530;2024-02-21T11:54:49;12.02;;;3.58;;
27402;SDS011;14862;49.494;8.530;2024-02-21T11:57:15;11.30;;;3.20;;
27402;SDS011;14862;49.494;8.530;2024-02-21T11:59:40;11.17;;;3.47;;
27402;SDS011;14862;49.494;8.530;2024-02-21T12:02:06;10.57;;;2.90;;
27402;SDS011;14862;49.494;8.530;2024-02-21T12:04:31;9.90;;;2.97;;
27402;SDS011;14862;49.494;8.530;2024-02-21T12:06:57;6.47;;;3.38;;
27402;SDS011;14862;49.494;8.530;2024-02-21T12:09:23;8.13;;;2.90;;
27402;SDS011;14862;49.494;8.530;2024-02-21T12:11:56;9.85;;;3.13;;
27402;SDS011;14862;49.494;8.530;2024-02-21T12:14:22;6.13;;;2.78;;
27402;SDS011;14862;49.494;8.530;2024-02-21T12:16:50;9.75;;;3.55;;
27402;SDS011;14862;49.494;8.530;2024-02-21T12:19:15;10.07;;;3.10;;
27402;SDS011;14862;49.494;8.530;2024-02-21T12:21:42;14.73;;;3.50;;
27402;SDS011;14862;49.494;8.530;2024-02-21T12:26:39;13.95;;;3.60;;
27402;SDS011;14862;49.494;8.530;2024-02-21T12:29:04;9.05;;;2.90;;
27402;SDS011;14862;49.494;8.530;2024-02-21T12:31:29;5.87;;;2.50;;
27402;SDS011;14862;49.494;8.530;2024-02-21T12:33:55;10.80;;;3.42;;
27402;SDS011;14862;49.494;8.530;2024-02-21T12:36:20;10.93;;;2.83;;
27402;SDS011;14862;49.494;8.530;2024-02-21T12:38:45;8.20;;;3.47;;
27402;SDS011;14862;49.494;8.530;2024-02-21T12:41:11;9.27;;;3.30;;
27402;SDS011;14862;49.494;8.530;2024-02-21T12:43:36;12.43;;;3.15;;
27402;SDS011;14862;49.494;8.530;2024-02-21T12:46:03;6.93;;;3.10;;
27402;SDS011;14862;49.494;8.530;2024-02-21T12:48:28;8.15;;;3.08;;
27402;SDS011;14862;49.494;8.530;2024-02-21T12:50:54;13.63;;;3.75;;
27402;SDS011;14862;49.494;8.530;2024-02-21T12:53:19;10.75;;;3.42;;
27402;SDS011;14862;49.494;8.530;2024-02-21T12:55:46;13.98;;;3.72;;
27402;SDS011;14862;49.494;8.530;2024-02-21T12:58:11;7.93;;;3.00;;
27402;SDS011;14862;49.494;8.530;2024-02-21T13:00:38;5.00;;;2.47;;
27402;SDS011;14862;49.494;8.530;2024-02-21T13:03:03;8.55;;;2.90;;
27402;SDS011;14862;49.494;8.530;2024-02-21T13:05:29;8.02;;;3.13;;
27402;SDS011;14862;49.494;8.530;2024-02-21T13:07:54;8.40;;;2.80;;
27402;SDS011;14862;49.494;8.530;2024-02-21T13:10:19;7.13;;;2.97;;
27402;SDS011;14862;49.494;8.530;2024-02-21T13:12:44;10.93;;;3.57;;
27402;SDS011;14862;49.494;8.530;2024-02-21T13:15:09;10.10;;;2.80;;
27402;SDS011;14862;49.494;8.530;2024-02-21T13:17:37;6.85;;;2.22;;
27402;SDS011;14862;49.494;8.530;2024-02-21T13:20:02;13.23;;;3.67;;
27402;SDS011;14862;49.494;8.530;2024-02-21T13:22:28;9.25;;;3.53;;
27402;SDS011;14862;49.494;8.530;2024-02-21T13:24:53;9.35;;;3.30;;
27402;SDS011;14862;49.494;8.530;2024-02-21T13:27:18;9.13;;;2.80;;
27402;SDS011;14862;49.494;8.530;2024-02-21T13:29:43;7.50;;;3.25;;
27402;SDS011;14862;49.494;8.530;2024-02-21T13:32:10;10.55;;;3.85;;
27402;SDS011;14862;49.494;8.530;2024-02-21T13:34:35;9.00;;;2.97;;
27402;SDS011;14862;49.494;8.530;2024-02-21T13:37:00;7.50;;;2.72;;
27402;SDS011;14862;49.494;8.530;2024-02-21T13:39:26;8.05;;;3.08;;
27402;SDS011;14862;49.494;8.530;2024-02-21T13:41:51;11.67;;;3.70;;
27402;SDS011;14862;49.494;8.530;2024-02-21T13:44:16;8.98;;;3.42;;
27402;SDS011;14862;49.494;8.530;2024-02-21T13:46:41;7.85;;;2.60;;
27402;SDS011;14862;49.494;8.530;2024-02-21T13:49:06;6.73;;;2.70;;
27402;SDS011;14862;49.494;8.530;2024-02-21T13:51:33;11.60;;;3.35;;
27402;SDS011;14862;49.494;8.530;2024-02-21T13:53:58;6.93;;;2.95;;
27402;SDS011;14862;49.494;8.530;2024-02-21T13:56:24;6.00;;;2.85;;
27402;SDS011;14862;49.494;8.530;2024-02-21T13:58:49;6.72;;;2.70;;
27402;SDS011;14862;49.494;8.530;2024-02-21T14:01:14;10.07;;;3.42;;
27402;SDS011;14862;49.494;8.530;2024-02-21T14:03:40;8.40;;;4.10;;
27402;SDS011;14862;49.494;8.530;2024-02-21T14:06:05;6.68;;;3.20;;
27402;SDS011;14862;49.494;8.530;2024-02-21T14:08:31;8.70;;;3.30;;
27402;SDS011;14862;49.494;8.530;2024-02-21T14:10:56;11.07;;;3.53;;
27402;SDS011;14862;49.494;8.530;2024-02-21T14:13:24;7.10;;;2.95;;
27402;SDS011;14862;49.494;8.530;2024-02-21T14:15:49;6.93;;;3.28;;
27402;SDS011;14862;49.494;8.530;2024-02-21T14:18:15;9.32;;;3.47;;
27402;SDS011;14862;49.494;8.530;2024-02-21T14:20:41;14.23;;;3.03;;
27402;SDS011;14862;49.494;8.530;2024-02-21T14:23:06;8.40;;;3.38;;
27402;SDS011;14862;49.494;8.530;2024-02-21T14:25:31;12.15;;;3.40;;
27402;SDS011;14862;49.494;8.530;2024-02-21T14:27:58;10.05;;;3.03;;
27402;SDS011;14862;49.494;8.530;2024-02-21T14:30:25;9.30;;;3.53;;